createdAt,value
2022-09-01T00:00:49.376Z,10.87
2022-09-01T00:04:47.734Z,12.50
2022-09-01T00:08:44.864Z,12.43
2022-09-01T00:12:42.141Z,9.93
2022-09-01T00:16:39.635Z,9.60
2022-09-01T00:20:36.738Z,11.30
2022-09-01T00:24:33.813Z,11.13
2022-09-01T00:28:34.488Z,10.37
2022-09-01T00:32:31.492Z,11.73
2022-09-01T00:36:28.626Z,10.60
2022-09-01T00:40:26.071Z,11.60
2022-09-01T00:44:29.796Z,10.20
2022-09-01T00:48:28.414Z,10.17
2022-09-01T00:52:38.798Z,12.20
2022-09-01T00:56:40.722Z,12.17
2022-09-01T01:00:46.792Z,11.70
2022-09-01T01:04:44.149Z,10.33
2022-09-01T01:08:56.915Z,10.40
2022-09-01T01:12:54.123Z,9.87
2022-09-01T01:16:56.369Z,11.97
2022-09-01T01:21:29.257Z,8.93
2022-09-01T01:25:27.252Z,9.27
2022-09-01T01:29:25.113Z,10.20
2022-09-01T01:33:29.959Z,8.67
2022-09-01T01:37:27.658Z,8.10
2022-09-01T01:41:24.853Z,10.17
2022-09-01T01:45:25.496Z,9.23
2022-09-01T01:49:29.222Z,8.73
2022-09-01T01:53:26.382Z,9.37
2022-09-01T01:57:23.474Z,8.73
2022-09-01T02:01:25.509Z,8.93
2022-09-01T02:05:33.253Z,10.07
2022-09-01T02:09:30.283Z,10.20
2022-09-01T02:13:31.423Z,8.23
2022-09-01T02:17:29.118Z,8.30
2022-09-01T02:21:28.629Z,8.27
2022-09-01T02:25:27.612Z,8.70
2022-09-01T02:29:26.643Z,8.03
2022-09-01T02:33:25.457Z,8.57
2022-09-01T02:37:25.550Z,7.80
2022-09-01T02:41:23.976Z,9.93
2022-09-01T02:45:22.230Z,7.97
2022-09-01T02:49:25.923Z,7.73
2022-09-01T02:53:23.519Z,11.97
2022-09-01T02:57:24.551Z,7.80
2022-09-01T03:01:31.485Z,7.07
2022-09-01T03:05:32.662Z,7.00
2022-09-01T03:09:30.210Z,8.17
2022-09-01T03:13:29.270Z,7.37
2022-09-01T03:17:27.151Z,10.00
2022-09-01T03:21:24.265Z,7.73
2022-09-01T03:25:25.165Z,10.17
2022-09-01T03:29:23.030Z,7.63
2022-09-01T03:33:22.887Z,8.73
2022-09-01T03:37:21.034Z,8.33
2022-09-01T03:41:22.753Z,8.63
2022-09-01T03:45:20.745Z,14.37
2022-09-01T03:49:27.911Z,9.53
2022-09-01T03:53:28.006Z,8.87
2022-09-01T03:57:29.116Z,9.53
2022-09-01T04:01:39.845Z,8.13
2022-09-01T04:05:44.461Z,10.73
2022-09-01T04:09:42.552Z,8.77
2022-09-01T04:13:42.782Z,10.77
2022-09-01T04:17:59.898Z,8.80
2022-09-01T04:22:00.795Z,9.10
2022-09-01T04:26:14.720Z,9.73
2022-09-01T04:30:14.699Z,10.63
2022-09-01T04:34:16.409Z,7.47
2022-09-01T04:38:16.191Z,8.17
2022-09-01T04:42:16.364Z,8.17
2022-09-01T04:46:21.257Z,8.23
2022-09-01T04:50:18.999Z,10.17
2022-09-01T04:54:38.982Z,7.47
2022-09-01T04:58:38.637Z,8.00
2022-09-01T05:02:35.620Z,7.23
2022-09-01T05:06:34.024Z,9.00
2022-09-01T05:10:34.744Z,8.13
2022-09-01T05:14:48.815Z,11.80
2022-09-01T05:18:50.644Z,7.60
2022-09-01T05:22:47.995Z,8.50
2022-09-01T05:26:47.562Z,7.67
2022-09-01T05:30:48.498Z,10.73
2022-09-01T05:34:46.236Z,12.27
2022-09-01T05:38:45.543Z,10.20
2022-09-01T05:42:44.488Z,7.77
2022-09-01T05:46:42.701Z,9.00
2022-09-01T05:50:43.017Z,7.10
2022-09-01T05:54:41.491Z,11.50
2022-09-01T06:02:58.213Z,5.63
2022-09-01T06:07:07.187Z,7.07
2022-09-01T06:11:12.656Z,6.43
2022-09-01T06:15:18.389Z,8.77
2022-09-01T06:19:21.088Z,5.83
2022-09-01T06:23:18.754Z,8.23
2022-09-01T06:27:18.302Z,6.68
2022-09-01T06:31:15.572Z,4.63
2022-09-01T06:35:18.341Z,6.23
2022-09-01T06:39:22.497Z,7.10
2022-09-01T06:43:23.453Z,6.60
2022-09-01T06:47:21.327Z,6.97
2022-09-01T06:51:22.745Z,6.03
2022-09-01T06:55:23.148Z,7.65
2022-09-01T06:59:21.050Z,5.83
2022-09-01T07:03:19.640Z,6.87
2022-09-01T07:12:27.690Z,5.80
2022-09-01T07:16:34.626Z,6.50
2022-09-01T07:21:03.073Z,8.80
2022-09-01T07:29:39.555Z,5.43
2022-09-01T07:33:41.984Z,6.47
2022-09-01T07:46:38.467Z,7.95
2022-09-01T07:55:05.870Z,7.47
2022-09-01T07:59:03.248Z,8.15
2022-09-01T08:03:01.427Z,6.60
2022-09-01T08:06:58.666Z,7.28
2022-09-01T08:11:05.628Z,4.50
2022-09-01T08:15:41.527Z,6.88
2022-09-01T08:19:25.452Z,7.00
2022-09-01T08:23:49.076Z,5.43
2022-09-01T08:27:46.970Z,7.63
2022-09-01T08:31:46.953Z,4.57
2022-09-01T08:35:49.079Z,4.28
2022-09-01T08:39:48.501Z,4.70
2022-09-01T08:44:16.731Z,3.38
2022-09-01T08:53:42.674Z,4.30
2022-09-01T08:57:45.319Z,3.88
2022-09-01T09:01:55.911Z,3.05
2022-09-01T09:06:13.730Z,2.80
2022-09-01T09:10:37.438Z,2.75
2022-09-01T09:14:52.793Z,6.53
2022-09-01T09:19:06.605Z,7.50
2022-09-01T09:23:22.020Z,3.10
2022-09-01T09:27:32.131Z,5.72
2022-09-01T09:31:45.824Z,5.45
2022-09-01T09:35:47.349Z,3.92
2022-09-01T09:39:44.788Z,3.17
2022-09-01T09:44:00.209Z,4.30
2022-09-01T09:47:58.464Z,3.85
2022-09-01T09:52:16.443Z,9.98
2022-09-01T09:56:24.351Z,9.18
2022-09-01T10:00:29.096Z,5.43
2022-09-01T10:04:39.067Z,4.95
2022-09-01T10:08:45.719Z,6.22
2022-09-01T10:12:43.026Z,5.95
2022-09-01T10:16:42.913Z,6.70
2022-09-01T10:21:26.084Z,5.60
2022-09-01T10:25:32.240Z,3.75
2022-09-01T10:29:50.583Z,6.13
2022-09-01T10:33:49.634Z,7.97
2022-09-01T10:37:50.471Z,6.47
2022-09-01T10:41:59.715Z,5.47
2022-09-01T10:46:05.342Z,4.30
2022-09-01T10:50:24.615Z,4.63
2022-09-01T10:54:50.787Z,5.35
2022-09-01T11:03:42.134Z,4.13
2022-09-01T11:08:09.061Z,3.30
2022-09-01T11:12:29.844Z,4.00
2022-09-01T11:16:50.121Z,5.18
2022-09-01T11:20:47.734Z,6.68
2022-09-01T11:25:00.187Z,6.82
2022-09-01T11:28:59.581Z,5.63
2022-09-01T11:33:24.173Z,4.10
2022-09-01T11:37:27.610Z,4.95
2022-09-01T11:41:46.474Z,5.38
2022-09-01T11:46:22.675Z,3.83
2022-09-01T11:50:27.036Z,3.70
2022-09-01T11:54:25.556Z,4.70
2022-09-01T11:58:29.079Z,3.10
2022-09-01T12:02:36.697Z,5.38
2022-09-01T12:06:35.061Z,4.20
2022-09-01T12:10:38.546Z,3.40
2022-09-01T12:15:01.929Z,2.50
2022-09-01T12:18:56.724Z,3.15
2022-09-01T12:22:54.091Z,4.60
2022-09-01T12:26:55.899Z,6.93
2022-09-01T12:30:55.546Z,3.38
2022-09-01T12:35:13.687Z,2.92
2022-09-01T12:39:25.085Z,2.90
2022-09-01T12:43:39.947Z,4.35
2022-09-01T12:47:37.159Z,2.65
2022-09-01T12:51:35.358Z,2.40
2022-09-01T12:55:52.058Z,2.40
2022-09-01T12:59:49.128Z,3.95
2022-09-01T13:04:16.157Z,2.63
2022-09-01T13:08:18.465Z,2.72
2022-09-01T13:12:21.698Z,2.55
2022-09-01T13:16:18.779Z,3.67
2022-09-01T13:20:16.612Z,2.92
2022-09-01T13:24:14.679Z,2.17
2022-09-01T13:28:13.698Z,2.58
2022-09-01T13:32:19.635Z,4.50
2022-09-01T13:40:35.160Z,2.80
2022-09-01T13:44:32.188Z,6.55
2022-09-01T13:49:02.320Z,2.38
2022-09-01T13:52:55.164Z,3.15
2022-09-01T13:56:52.477Z,2.50
2022-09-01T14:00:51.044Z,2.25
2022-09-01T14:04:48.284Z,2.13
2022-09-01T14:08:45.353Z,3.53
2022-09-01T14:12:43.251Z,4.28
2022-09-01T14:16:40.417Z,2.03
2022-09-01T14:20:42.511Z,2.05
2022-09-01T14:24:40.935Z,2.10
2022-09-01T14:28:40.088Z,2.00
2022-09-01T14:32:37.205Z,3.78
2022-09-01T14:36:34.888Z,4.15
2022-09-01T14:40:32.009Z,2.38
2022-09-01T14:44:29.146Z,1.80
2022-09-01T14:48:26.103Z,2.72
2022-09-01T14:52:23.100Z,2.92
2022-09-01T14:56:21.756Z,4.30
2022-09-01T15:00:20.010Z,2.10
2022-09-01T15:04:17.136Z,3.17
2022-09-01T15:08:17.855Z,5.78
2022-09-01T15:12:15.019Z,4.78
2022-09-01T15:16:25.599Z,3.53
2022-09-01T15:20:42.622Z,4.55
2022-09-01T15:24:39.723Z,2.70
2022-09-01T15:28:36.831Z,3.92
2022-09-01T15:32:33.959Z,2.75
2022-09-01T15:36:35.579Z,2.85
2022-09-01T15:40:33.548Z,2.55
2022-09-01T15:44:31.203Z,3.58
2022-09-01T15:48:29.818Z,2.55
2022-09-01T15:52:28.400Z,3.67
2022-09-01T15:56:26.120Z,1.98
2022-09-01T16:00:29.735Z,3.03
2022-09-01T16:04:27.894Z,2.55
2022-09-01T16:08:25.166Z,4.75
2022-09-01T16:12:22.247Z,2.38
2022-09-01T16:16:51.993Z,3.60
2022-09-01T16:21:35.439Z,1.63
2022-09-01T16:25:34.773Z,1.98
2022-09-01T16:30:04.307Z,2.90
2022-09-01T16:34:13.184Z,1.65
2022-09-01T16:38:40.351Z,2.53
2022-09-01T16:42:58.000Z,3.10
2022-09-01T16:47:16.532Z,1.33
2022-09-01T16:51:52.869Z,2.90
2022-09-01T16:56:01.734Z,5.47
2022-09-01T17:00:08.489Z,2.88
2022-09-01T17:04:12.073Z,1.73
2022-09-01T17:08:23.345Z,2.13
2022-09-01T17:12:33.384Z,3.45
2022-09-01T17:16:38.150Z,2.15
2022-09-01T17:20:41.166Z,1.98
2022-09-01T17:24:56.908Z,3.25
2022-09-01T17:29:13.241Z,2.67
2022-09-01T17:33:17.272Z,2.00
2022-09-01T17:37:32.786Z,1.40
2022-09-01T17:41:52.905Z,3.33
2022-09-01T17:46:20.875Z,2.58
2022-09-01T17:51:01.161Z,2.35
2022-09-01T17:55:28.199Z,2.38
2022-09-01T18:00:05.108Z,4.35
2022-09-01T18:04:42.339Z,2.47
2022-09-01T18:08:47.971Z,3.25
2022-09-01T18:12:52.462Z,2.33
2022-09-01T18:16:49.476Z,2.08
2022-09-01T18:20:49.594Z,3.28
2022-09-01T18:25:03.947Z,5.25
2022-09-01T18:29:05.220Z,2.35
2022-09-01T18:34:03.416Z,1.50
2022-09-01T18:38:20.812Z,1.98
2022-09-01T18:42:49.094Z,2.53
2022-09-01T18:47:09.628Z,1.30
2022-09-01T18:51:16.926Z,4.57
2022-09-01T18:55:43.751Z,3.70
2022-09-01T19:00:18.207Z,4.03
2022-09-01T19:04:31.810Z,3.03
2022-09-01T19:09:16.164Z,2.30
2022-09-01T19:14:03.383Z,2.80
2022-09-01T19:18:13.921Z,1.60
2022-09-01T19:22:30.269Z,2.33
2022-09-01T19:26:32.138Z,1.50
2022-09-01T19:30:29.984Z,2.33
2022-09-01T19:34:36.509Z,3.17
2022-09-01T19:38:33.670Z,5.23
2022-09-01T19:42:38.809Z,3.40
2022-09-01T19:46:43.339Z,4.23
2022-09-01T19:50:59.552Z,2.17
2022-09-01T19:55:04.004Z,2.57
2022-09-01T19:59:55.786Z,2.17
2022-09-01T20:04:15.058Z,2.67
2022-09-01T20:08:25.836Z,1.73
2022-09-01T20:12:40.147Z,2.37
2022-09-01T20:16:44.528Z,2.27
2022-09-01T20:20:48.944Z,2.80
2022-09-01T20:24:47.305Z,2.77
2022-09-01T20:28:53.767Z,2.33
2022-09-01T20:33:18.912Z,2.83
2022-09-01T20:37:27.195Z,6.27
2022-09-01T20:42:09.391Z,4.77
2022-09-01T20:46:06.670Z,8.97
2022-09-01T20:50:13.448Z,2.63
2022-09-01T20:54:40.730Z,4.70
2022-09-01T20:58:45.270Z,5.43
2022-09-01T21:03:33.585Z,2.77
2022-09-01T21:07:56.451Z,5.37
2022-09-01T21:12:35.150Z,4.83
2022-09-01T21:16:56.304Z,5.03
2022-09-01T21:21:08.269Z,5.13
2022-09-01T21:25:06.149Z,5.83
2022-09-01T21:29:43.811Z,3.57
2022-09-01T21:33:40.802Z,4.67
2022-09-01T21:37:38.365Z,4.83
2022-09-01T21:41:35.464Z,4.87
2022-09-01T21:45:36.732Z,3.67
2022-09-01T21:49:33.847Z,4.43
2022-09-01T21:53:32.658Z,3.27
2022-09-01T21:57:29.686Z,7.90
2022-09-01T22:01:31.340Z,4.30
2022-09-01T22:05:33.296Z,8.70
2022-09-01T22:09:30.692Z,6.07
2022-09-01T22:13:28.074Z,5.17
2022-09-01T22:17:25.315Z,5.53
2022-09-01T22:21:22.792Z,5.10
2022-09-01T22:25:24.039Z,5.80
2022-09-01T22:29:21.092Z,5.13
2022-09-01T22:33:20.595Z,5.07
2022-09-01T22:37:18.839Z,4.10
2022-09-01T22:41:23.167Z,4.03
2022-09-01T22:45:20.234Z,6.43
2022-09-01T22:49:17.639Z,4.03
2022-09-01T22:53:16.566Z,6.10
2022-09-01T22:57:14.532Z,3.53
2022-09-01T23:01:16.721Z,5.47
2022-09-01T23:05:14.060Z,6.17
2022-09-01T23:09:14.064Z,5.50
2022-09-01T23:13:11.152Z,4.93
2022-09-01T23:17:08.496Z,5.60
2022-09-01T23:21:08.039Z,4.17
2022-09-01T23:25:06.657Z,4.37
2022-09-01T23:29:05.660Z,4.83
2022-09-01T23:33:03.013Z,3.10
2022-09-01T23:37:00.009Z,5.37
2022-09-01T23:40:58.630Z,6.13
2022-09-01T23:44:55.614Z,3.43
2022-09-01T23:48:53.733Z,5.37
2022-09-01T23:52:51.018Z,8.07
2022-09-01T23:56:48.288Z,4.97
